createdAt,value
2023-02-14T00:01:44.066Z,96.63
2023-02-14T00:04:10.698Z,96.76
2023-02-14T00:06:39.256Z,95.73
2023-02-14T00:09:07.598Z,95.33
2023-02-14T00:11:34.168Z,95.76
2023-02-14T00:14:19.119Z,96.03
2023-02-14T00:16:46.198Z,95.93
2023-02-14T00:19:15.301Z,96.09
2023-02-14T00:21:42.219Z,96.54
2023-02-14T00:24:11.928Z,95.70
2023-02-14T00:26:38.894Z,95.72
2023-02-14T00:29:13.513Z,96.44
2023-02-14T00:31:41.611Z,96.30
2023-02-14T00:34:09.041Z,96.57
2023-02-14T00:36:36.791Z,96.15
2023-02-14T00:39:09.285Z,95.84
2023-02-14T00:41:36.218Z,95.75
2023-02-14T00:44:02.975Z,96.47
2023-02-14T00:46:29.670Z,96.98
2023-02-14T00:48:56.779Z,97.16
2023-02-14T00:51:23.937Z,97.10
2023-02-14T00:53:51.467Z,96.60
2023-02-14T00:56:20.285Z,97.17
2023-02-14T00:58:47.369Z,97.53
2023-02-14T01:01:15.625Z,98.11
2023-02-14T01:03:42.570Z,97.35
2023-02-14T01:06:09.672Z,97.81
2023-02-14T01:08:36.200Z,97.36
2023-02-14T01:11:18.205Z,97.56
2023-02-14T01:13:45.784Z,97.85
2023-02-14T01:16:16.019Z,97.71
2023-02-14T01:18:44.092Z,97.83
2023-02-14T01:21:15.166Z,97.12
2023-02-14T01:23:42.775Z,97.27
2023-02-14T01:26:10.719Z,97.01
2023-02-14T01:28:37.823Z,97.42
2023-02-14T01:31:17.116Z,97.67
2023-02-14T01:33:47.099Z,97.25
2023-02-14T01:36:19.077Z,97.38
2023-02-14T01:38:45.985Z,97.43
2023-02-14T01:41:13.278Z,98.01
2023-02-14T01:43:55.954Z,97.27
2023-02-14T01:46:23.424Z,97.67
2023-02-14T01:48:51.076Z,97.74
2023-02-14T01:51:20.145Z,98.06
2023-02-14T01:53:47.785Z,98.04
2023-02-14T01:56:21.168Z,98.28
2023-02-14T01:58:52.803Z,98.05
2023-02-14T02:01:20.067Z,98.06
2023-02-14T02:03:55.989Z,97.96
2023-02-14T02:06:35.662Z,98.16
2023-02-14T02:09:15.119Z,98.19
2023-02-14T02:11:42.848Z,98.55
2023-02-14T02:14:16.008Z,98.32
2023-02-14T02:16:47.820Z,98.38
2023-02-14T02:19:36.549Z,98.54
2023-02-14T02:22:46.857Z,98.21
2023-02-14T02:25:59.180Z,98.97
2023-02-14T02:28:51.710Z,99.03
2023-02-14T02:31:52.425Z,98.26
2023-02-14T02:34:56.233Z,98.38
2023-02-14T02:37:31.580Z,99.07
2023-02-14T02:40:13.167Z,99.50
2023-02-14T02:43:02.674Z,98.77
2023-02-14T02:45:56.952Z,98.93
2023-02-14T02:48:32.189Z,99.67
2023-02-14T02:51:20.669Z,99.78
2023-02-14T02:54:02.919Z,99.51
2023-02-14T02:56:46.948Z,99.77
2023-02-14T02:59:22.081Z,99.73
2023-02-14T03:01:54.885Z,100.00
2023-02-14T03:04:44.905Z,100.00
2023-02-14T03:07:30.935Z,100.00
2023-02-14T03:10:00.890Z,100.00
2023-02-14T03:12:33.317Z,99.80
2023-02-14T03:15:11.027Z,100.00
2023-02-14T03:17:43.684Z,99.84
2023-02-14T03:20:45.567Z,100.00
2023-02-14T03:23:22.495Z,100.00
2023-02-14T03:25:54.939Z,100.00
2023-02-14T03:28:47.223Z,100.00
2023-02-14T03:31:16.624Z,100.00
2023-02-14T03:34:03.715Z,100.00
2023-02-14T03:36:33.668Z,100.00
2023-02-14T03:39:10.850Z,100.00
2023-02-14T03:41:51.674Z,100.00
2023-02-14T03:44:22.248Z,100.00
2023-02-14T03:47:01.455Z,100.00
2023-02-14T03:49:35.003Z,100.00
2023-02-14T03:52:03.965Z,100.00
2023-02-14T03:54:32.961Z,100.00
2023-02-14T03:57:24.943Z,100.00
2023-02-14T03:59:53.324Z,100.00
2023-02-14T04:02:37.961Z,100.00
2023-02-14T04:05:11.963Z,100.00
2023-02-14T04:07:48.977Z,100.00
2023-02-14T04:10:16.858Z,100.00
2023-02-14T04:12:43.654Z,100.00
2023-02-14T04:15:10.737Z,100.00
2023-02-14T04:18:03.613Z,100.00
2023-02-14T04:20:30.508Z,100.00
2023-02-14T04:22:57.658Z,100.00
2023-02-14T04:25:24.551Z,100.00
2023-02-14T04:27:52.061Z,100.00
2023-02-14T04:30:20.826Z,100.00
2023-02-14T04:32:47.503Z,100.00
2023-02-14T04:35:14.650Z,100.00
2023-02-14T04:37:42.873Z,100.00
2023-02-14T04:40:10.146Z,100.00
2023-02-14T04:42:36.862Z,100.00
2023-02-14T04:45:05.526Z,100.00
2023-02-14T04:47:32.443Z,100.00
2023-02-14T04:49:59.108Z,100.00
2023-02-14T04:52:27.422Z,100.00
2023-02-14T04:57:34.706Z,100.00
2023-02-14T05:00:01.459Z,100.00
2023-02-14T05:02:32.258Z,100.00
2023-02-14T05:04:59.621Z,100.00
2023-02-14T05:07:26.239Z,100.00
2023-02-14T05:09:52.766Z,100.00
2023-02-14T05:12:19.560Z,100.00
2023-02-14T05:17:27.613Z,100.00
2023-02-14T05:19:54.482Z,100.00
2023-02-14T05:22:21.404Z,100.00
2023-02-14T05:24:48.002Z,100.00
2023-02-14T05:27:14.662Z,100.00
2023-02-14T05:29:44.100Z,100.00
2023-02-14T05:32:11.618Z,100.00
2023-02-14T05:34:38.433Z,100.00
2023-02-14T05:37:05.089Z,100.00
2023-02-14T05:39:32.593Z,100.00
2023-02-14T05:41:59.585Z,100.00
2023-02-14T05:44:26.323Z,100.00
2023-02-14T05:46:53.157Z,100.00
2023-02-14T05:49:20.127Z,100.00
2023-02-14T05:51:47.110Z,100.00
2023-02-14T05:54:13.736Z,100.00
2023-02-14T05:56:40.479Z,100.00
2023-02-14T05:59:10.680Z,100.00
2023-02-14T06:01:37.421Z,100.00
2023-02-14T06:04:04.190Z,100.00
2023-02-14T06:06:31.584Z,100.00
2023-02-14T06:09:02.268Z,100.00
2023-02-14T06:11:29.583Z,100.00
2023-02-14T06:13:57.078Z,100.00
2023-02-14T06:16:23.834Z,100.00
2023-02-14T06:18:50.417Z,100.00
2023-02-14T06:21:17.257Z,100.00
2023-02-14T06:23:45.505Z,100.00
2023-02-14T06:26:13.785Z,100.00
2023-02-14T06:28:40.284Z,100.00
2023-02-14T06:31:07.023Z,100.00
2023-02-14T06:33:33.790Z,100.00
2023-02-14T06:36:00.431Z,100.00
2023-02-14T06:38:29.085Z,100.00
2023-02-14T06:40:55.570Z,100.00
2023-02-14T06:43:22.333Z,100.00
2023-02-14T06:45:48.809Z,100.00
2023-02-14T06:48:15.662Z,100.00
2023-02-14T06:50:43.151Z,100.00
2023-02-14T06:53:09.812Z,100.00
2023-02-14T06:55:36.503Z,100.00
2023-02-14T06:58:03.317Z,100.00
2023-02-14T07:00:30.094Z,100.00
2023-02-14T07:02:57.784Z,100.00
2023-02-14T07:05:24.575Z,100.00
2023-02-14T07:07:52.866Z,100.00
2023-02-14T07:10:19.973Z,100.00
2023-02-14T07:12:46.790Z,100.00
2023-02-14T07:15:13.582Z,100.00
2023-02-14T07:17:48.225Z,100.00
2023-02-14T07:20:15.775Z,100.00
2023-02-14T07:22:42.748Z,100.00
2023-02-14T07:25:13.158Z,100.00
2023-02-14T07:27:40.169Z,100.00
2023-02-14T07:30:08.585Z,100.00
2023-02-14T07:32:38.413Z,100.00
2023-02-14T07:35:05.657Z,100.00
2023-02-14T07:37:33.705Z,100.00
2023-02-14T07:40:00.267Z,100.00
2023-02-14T07:42:27.153Z,100.00
2023-02-14T07:44:53.792Z,100.00
2023-02-14T07:47:20.400Z,100.00
2023-02-14T07:49:46.955Z,100.00
2023-02-14T07:52:13.442Z,100.00
2023-02-14T07:54:41.309Z,100.00
2023-02-14T07:57:08.093Z,100.00
2023-02-14T07:59:36.213Z,100.00
2023-02-14T08:02:04.767Z,100.00
2023-02-14T08:04:33.752Z,100.00
2023-02-14T08:07:00.798Z,100.00
2023-02-14T08:09:27.545Z,100.00
2023-02-14T08:12:15.611Z,100.00
2023-02-14T08:14:43.486Z,100.00
2023-02-14T08:17:11.679Z,100.00
2023-02-14T08:19:38.425Z,100.00
2023-02-14T08:22:05.497Z,100.00
2023-02-14T08:24:32.496Z,100.00
2023-02-14T08:26:59.860Z,100.00
2023-02-14T08:29:26.486Z,100.00
2023-02-14T08:31:53.762Z,100.00
2023-02-14T08:34:22.240Z,100.00
2023-02-14T08:36:48.946Z,100.00
2023-02-14T08:39:15.538Z,100.00
2023-02-14T08:41:42.049Z,100.00
2023-02-14T08:44:08.890Z,100.00
2023-02-14T08:46:36.056Z,100.00
2023-02-14T08:49:02.835Z,100.00
2023-02-14T08:51:29.614Z,100.00
2023-02-14T08:53:56.485Z,100.00
2023-02-14T08:56:24.427Z,100.00
2023-02-14T08:58:55.267Z,100.00
2023-02-14T09:01:22.412Z,100.00
2023-02-14T09:03:49.137Z,100.00
2023-02-14T09:06:17.542Z,100.00
2023-02-14T09:08:44.998Z,100.00
2023-02-14T09:11:18.898Z,100.00
2023-02-14T09:13:47.441Z,100.00
2023-02-14T09:16:19.280Z,100.00
2023-02-14T09:18:47.418Z,100.00
2023-02-14T09:21:17.283Z,100.00
2023-02-14T09:23:44.405Z,100.00
2023-02-14T09:26:13.705Z,100.00
2023-02-14T09:28:42.040Z,100.00
2023-02-14T09:31:14.644Z,100.00
2023-02-14T09:33:46.282Z,100.00
2023-02-14T09:36:18.838Z,100.00
2023-02-14T09:38:47.694Z,100.00
2023-02-14T09:41:31.070Z,100.00
2023-02-14T09:44:44.646Z,100.00
2023-02-14T09:47:35.634Z,100.00
2023-02-14T09:50:07.148Z,100.00
2023-02-14T09:52:37.829Z,100.00
2023-02-14T09:55:14.920Z,100.00
2023-02-14T09:57:56.935Z,100.00
2023-02-14T10:00:31.291Z,100.00
2023-02-14T10:03:29.273Z,100.00
2023-02-14T10:06:12.291Z,100.00
2023-02-14T10:08:44.215Z,100.00
2023-02-14T10:11:20.750Z,100.00
2023-02-14T10:13:54.559Z,100.00
2023-02-14T10:16:28.910Z,100.00
2023-02-14T10:19:05.235Z,100.00
2023-02-14T10:21:43.113Z,100.00
2023-02-14T10:24:21.668Z,100.00
2023-02-14T10:26:54.775Z,100.00
2023-02-14T10:29:22.667Z,100.00
2023-02-14T10:32:04.481Z,100.00
2023-02-14T10:34:46.024Z,100.00
2023-02-14T10:37:17.747Z,100.00
2023-02-14T10:40:00.573Z,100.00
2023-02-14T10:43:12.923Z,100.00
2023-02-14T10:45:52.894Z,100.00
2023-02-14T10:48:42.788Z,100.00
2023-02-14T10:51:25.766Z,100.00
2023-02-14T10:54:13.703Z,100.00
2023-02-14T10:57:19.255Z,100.00
2023-02-14T11:00:14.281Z,100.00
2023-02-14T11:02:49.932Z,100.00
2023-02-14T11:05:41.090Z,100.00
2023-02-14T11:08:20.125Z,100.00
2023-02-14T11:10:50.630Z,100.00
2023-02-14T11:13:36.078Z,100.00
2023-02-14T11:20:12.997Z,100.00
2023-02-14T11:22:39.834Z,100.00
2023-02-14T11:25:30.689Z,99.82
2023-02-14T11:28:12.480Z,99.39
2023-02-14T11:30:47.805Z,98.59
2023-02-14T11:33:33.493Z,98.19
2023-02-14T11:36:03.244Z,97.43
2023-02-14T11:38:36.186Z,97.30
2023-02-14T11:41:04.959Z,96.87
2023-02-14T11:43:45.860Z,96.04
2023-02-14T11:46:36.144Z,95.31
2023-02-14T11:49:09.464Z,94.86
2023-02-14T11:51:42.174Z,94.39
2023-02-14T11:54:27.719Z,94.40
2023-02-14T11:57:06.023Z,93.62
2023-02-14T11:59:43.626Z,93.60
2023-02-14T12:02:29.439Z,93.27
2023-02-14T12:07:45.822Z,91.96
2023-02-14T12:10:19.051Z,91.56
2023-02-14T12:12:48.586Z,91.21
2023-02-14T12:15:25.230Z,91.23
2023-02-14T12:17:58.884Z,91.28
2023-02-14T12:20:49.379Z,90.83
2023-02-14T12:23:26.413Z,90.33
2023-02-14T12:25:59.113Z,89.80
2023-02-14T12:28:38.661Z,89.17
2023-02-14T12:31:13.580Z,88.50
2023-02-14T12:33:41.202Z,88.18
2023-02-14T12:36:30.931Z,87.97
2023-02-14T12:39:16.603Z,87.64
2023-02-14T12:42:00.340Z,86.76
2023-02-14T12:44:59.586Z,86.29
2023-02-14T12:47:54.983Z,86.19
2023-02-14T12:50:37.992Z,85.66
2023-02-14T12:53:25.984Z,86.35
2023-02-14T12:56:11.501Z,87.12
2023-02-14T12:58:51.014Z,87.54
2023-02-14T13:01:39.221Z,87.14
2023-02-14T13:04:34.184Z,86.14
2023-02-14T13:07:13.807Z,84.88
2023-02-14T13:09:54.634Z,84.60
2023-02-14T13:12:44.488Z,84.84
2023-02-14T13:15:27.587Z,83.97
2023-02-14T13:18:12.522Z,83.71
2023-02-14T13:20:58.350Z,84.42
2023-02-14T13:23:36.143Z,84.15
2023-02-14T13:26:29.617Z,82.49
2023-02-14T13:29:02.310Z,83.14
2023-02-14T13:46:02.821Z,82.21
2023-02-14T13:48:30.845Z,80.71
2023-02-14T13:50:59.986Z,80.35
2023-02-14T13:53:34.712Z,80.08
2023-02-14T13:56:24.782Z,81.00
2023-02-14T13:59:06.055Z,82.19
2023-02-14T14:01:51.610Z,81.31
2023-02-14T14:04:31.935Z,80.64
2023-02-14T14:07:04.652Z,80.83
2023-02-14T14:09:43.873Z,81.44
2023-02-14T14:12:28.824Z,80.52
2023-02-14T14:15:08.235Z,79.26
2023-02-14T14:17:39.406Z,77.83
2023-02-14T14:20:21.725Z,78.79
2023-02-14T14:22:50.678Z,78.40
2023-02-14T14:25:37.930Z,78.87
2023-02-14T14:28:12.096Z,78.84
2023-02-14T14:30:44.666Z,79.69
2023-02-14T14:33:31.975Z,77.46
2023-02-14T14:36:21.683Z,77.28
2023-02-14T14:38:51.241Z,77.08
2023-02-14T14:41:19.248Z,77.09
2023-02-14T14:43:47.844Z,77.44
2023-02-14T14:46:16.085Z,77.03
2023-02-14T14:48:51.590Z,78.38
2023-02-14T14:51:31.495Z,77.51
2023-02-14T14:54:03.514Z,78.02
2023-02-14T14:56:35.670Z,77.09
2023-02-14T14:59:35.766Z,77.93
2023-02-14T15:02:04.215Z,76.36
2023-02-14T15:04:32.693Z,76.80
2023-02-14T15:07:27.864Z,76.26
2023-02-14T15:09:54.665Z,75.98
2023-02-14T15:12:43.334Z,77.93
2023-02-14T15:15:16.930Z,76.76
2023-02-14T15:17:45.996Z,78.18
2023-02-14T15:20:24.204Z,77.62
2023-02-14T15:22:55.204Z,78.77
2023-02-14T15:25:22.526Z,78.83
2023-02-14T15:27:49.743Z,78.51
2023-02-14T15:30:21.930Z,77.20
2023-02-14T15:32:50.642Z,77.15
2023-02-14T15:35:24.255Z,78.86
2023-02-14T15:37:52.151Z,78.75
2023-02-14T15:40:24.625Z,80.23
2023-02-14T15:42:59.121Z,79.90
2023-02-14T15:45:26.261Z,80.12
2023-02-14T15:47:55.850Z,79.75
2023-02-14T15:50:27.924Z,79.89
2023-02-14T15:53:00.352Z,80.53
2023-02-14T15:55:28.055Z,80.05
2023-02-14T15:58:02.995Z,79.67
2023-02-14T16:00:31.802Z,80.29
2023-02-14T16:03:23.898Z,80.74
2023-02-14T16:05:51.444Z,81.52
2023-02-14T16:08:37.781Z,82.09
2023-02-14T16:11:14.668Z,82.92
2023-02-14T16:13:47.799Z,83.49
2023-02-14T16:16:15.707Z,83.95
2023-02-14T16:18:43.804Z,84.91
2023-02-14T16:21:16.407Z,85.57
2023-02-14T16:23:45.940Z,85.84
2023-02-14T16:26:13.296Z,85.76
2023-02-14T16:28:43.034Z,86.38
2023-02-14T16:31:15.532Z,86.24
2023-02-14T16:33:44.917Z,87.23
2023-02-14T16:36:26.453Z,87.69
2023-02-14T16:38:53.580Z,88.19
2023-02-14T16:41:26.438Z,88.96
2023-02-14T16:43:55.505Z,89.18
2023-02-14T16:46:26.226Z,89.77
2023-02-14T16:48:53.176Z,90.05
2023-02-14T16:51:22.571Z,90.14
2023-02-14T16:53:50.515Z,90.27
2023-02-14T16:56:26.091Z,90.88
2023-02-14T16:58:52.741Z,91.28
2023-02-14T17:01:19.438Z,91.20
2023-02-14T17:03:46.292Z,91.53
2023-02-14T17:06:17.097Z,91.92
2023-02-14T17:08:44.021Z,92.07
2023-02-14T17:11:11.367Z,92.04
2023-02-14T17:13:41.291Z,92.20
2023-02-14T17:16:11.948Z,92.65
2023-02-14T17:18:41.646Z,92.46
2023-02-14T17:21:11.997Z,92.85
2023-02-14T17:23:38.651Z,92.67
2023-02-14T17:26:06.155Z,92.57
2023-02-14T17:28:33.353Z,93.07
2023-02-14T17:31:01.151Z,93.27
2023-02-14T17:33:30.467Z,93.22
2023-02-14T17:36:06.814Z,93.02
2023-02-14T17:38:35.922Z,93.20
2023-02-14T17:41:22.780Z,93.37
2023-02-14T17:43:51.342Z,93.16
2023-02-14T17:46:20.885Z,93.25
2023-02-14T17:48:49.206Z,93.42
2023-02-14T17:51:18.119Z,93.57
2023-02-14T17:53:44.828Z,93.14
2023-02-14T17:56:14.733Z,93.45
2023-02-14T17:58:41.714Z,93.77
2023-02-14T18:01:10.896Z,93.71
2023-02-14T18:03:39.108Z,93.52
2023-02-14T18:06:06.934Z,93.80
2023-02-14T18:08:39.207Z,94.24
2023-02-14T18:11:08.196Z,94.73
2023-02-14T18:13:35.400Z,94.83
2023-02-14T18:16:04.719Z,94.66
2023-02-14T18:18:32.779Z,95.35
2023-02-14T18:21:03.302Z,95.34
2023-02-14T18:23:32.926Z,95.22
2023-02-14T18:26:04.656Z,95.56
2023-02-14T18:28:32.771Z,95.46
2023-02-14T18:31:09.357Z,95.06
2023-02-14T18:33:37.683Z,95.42
2023-02-14T18:36:09.094Z,95.47
2023-02-14T18:38:36.268Z,95.22
2023-02-14T18:41:05.635Z,94.99
2023-02-14T18:43:32.659Z,95.38
2023-02-14T18:46:07.916Z,95.60
2023-02-14T18:48:37.364Z,95.58
2023-02-14T18:51:14.326Z,95.38
2023-02-14T18:53:44.390Z,95.10
2023-02-14T18:56:15.766Z,95.45
2023-02-14T18:58:49.059Z,95.66
2023-02-14T19:01:18.048Z,94.79
2023-02-14T19:03:45.730Z,95.54
2023-02-14T19:06:13.507Z,95.01
2023-02-14T19:08:41.839Z,95.39
2023-02-14T19:11:20.291Z,94.71
2023-02-14T19:13:58.710Z,95.65
2023-02-14T19:16:28.578Z,95.87
2023-02-14T19:18:55.963Z,95.98
2023-02-14T19:21:25.901Z,96.00
2023-02-14T19:23:57.269Z,96.19
2023-02-14T19:26:31.782Z,96.11
2023-02-14T19:29:04.854Z,95.65
2023-02-14T19:31:36.378Z,96.05
2023-02-14T19:34:05.177Z,95.95
2023-02-14T19:36:33.341Z,95.68
2023-02-14T19:39:00.181Z,95.58
2023-02-14T19:41:32.248Z,96.04
2023-02-14T19:43:59.909Z,95.80
2023-02-14T19:46:28.410Z,96.03
2023-02-14T19:49:06.289Z,95.93
2023-02-14T19:51:36.329Z,96.11
2023-02-14T19:54:12.838Z,96.20
2023-02-14T19:56:46.525Z,95.98
2023-02-14T20:02:04.516Z,96.24
2023-02-14T20:04:32.234Z,96.53
2023-02-14T20:06:59.280Z,96.21
2023-02-14T20:09:26.950Z,96.05
2023-02-14T20:11:56.357Z,96.53
2023-02-14T20:14:38.421Z,96.41
2023-02-14T20:17:15.149Z,96.00
2023-02-14T20:19:42.626Z,96.31
2023-02-14T20:22:09.401Z,96.09
2023-02-14T20:24:36.270Z,96.08
2023-02-14T20:27:03.918Z,95.84
2023-02-14T20:29:31.330Z,96.22
2023-02-14T20:32:00.262Z,96.24
2023-02-14T20:34:29.384Z,95.69
2023-02-14T20:36:57.222Z,96.23
2023-02-14T20:39:29.888Z,96.26
2023-02-14T20:41:56.875Z,96.22
2023-02-14T20:44:25.664Z,96.54
2023-02-14T20:46:53.399Z,96.00
2023-02-14T20:49:23.685Z,96.26
2023-02-14T20:51:51.398Z,96.50
2023-02-14T20:54:24.373Z,96.18
2023-02-14T20:56:51.651Z,96.10
2023-02-14T20:59:29.224Z,96.40
2023-02-14T21:01:59.940Z,96.35
2023-02-14T21:04:27.469Z,96.03
2023-02-14T21:06:54.764Z,96.13
2023-02-14T21:09:22.142Z,96.25
2023-02-14T21:11:50.536Z,96.14
2023-02-14T21:14:18.302Z,96.67
2023-02-14T21:16:48.530Z,96.54
2023-02-14T21:19:15.439Z,96.53
2023-02-14T21:21:42.912Z,96.48
2023-02-14T21:24:16.093Z,96.08
2023-02-14T21:26:44.809Z,96.35
2023-02-14T21:29:11.574Z,96.17
2023-02-14T21:31:38.732Z,96.56
2023-02-14T21:34:06.026Z,96.46
2023-02-14T21:36:38.691Z,96.04
2023-02-14T21:39:10.917Z,96.24
2023-02-14T21:41:37.992Z,96.03
2023-02-14T21:44:05.933Z,95.54
2023-02-14T21:46:37.200Z,95.83
2023-02-14T21:49:23.955Z,96.43
2023-02-14T21:51:50.858Z,96.55
2023-02-14T21:54:18.076Z,96.55
2023-02-14T21:56:45.303Z,96.53
2023-02-14T22:01:53.525Z,96.64
2023-02-14T22:04:20.279Z,96.19
2023-02-14T22:06:47.279Z,96.32
2023-02-14T22:09:15.095Z,96.27
2023-02-14T22:11:41.908Z,96.37
2023-02-14T22:14:09.076Z,96.51
2023-02-14T22:16:38.892Z,96.68
2023-02-14T22:19:07.075Z,96.51
2023-02-14T22:21:34.522Z,96.04
2023-02-14T22:24:02.401Z,96.32
2023-02-14T22:26:31.629Z,96.35
2023-02-14T22:29:00.379Z,96.13
2023-02-14T22:31:30.264Z,96.40
2023-02-14T22:33:57.209Z,96.20
2023-02-14T22:36:24.502Z,96.14
2023-02-14T22:38:51.526Z,96.17
2023-02-14T22:41:22.082Z,96.49
2023-02-14T22:43:49.556Z,96.72
2023-02-14T22:46:20.255Z,96.39
2023-02-14T22:48:48.898Z,97.18
2023-02-14T22:51:24.076Z,96.17
2023-02-14T22:53:53.206Z,96.25
2023-02-14T22:56:29.356Z,96.78
2023-02-14T22:58:58.204Z,96.79
2023-02-14T23:01:25.336Z,96.93
2023-02-14T23:03:57.578Z,97.08
2023-02-14T23:06:26.070Z,96.83
2023-02-14T23:08:55.617Z,97.55
2023-02-14T23:11:25.673Z,97.65
2023-02-14T23:14:12.691Z,97.44
2023-02-14T23:16:58.644Z,97.48
2023-02-14T23:19:49.676Z,97.43
2023-02-14T23:22:22.325Z,97.35
2023-02-14T23:24:51.348Z,98.32
2023-02-14T23:27:21.919Z,97.63
2023-02-14T23:29:49.554Z,97.87
2023-02-14T23:32:17.156Z,97.89
2023-02-14T23:34:45.818Z,97.62
2023-02-14T23:37:14.265Z,97.91
2023-02-14T23:39:41.719Z,97.85
2023-02-14T23:42:13.941Z,97.62
2023-02-14T23:44:42.261Z,97.80
2023-02-14T23:47:11.132Z,97.37
2023-02-14T23:49:39.745Z,97.21
2023-02-14T23:52:15.541Z,97.51
2023-02-14T23:54:42.475Z,97.09
2023-02-14T23:57:09.546Z,97.48
2023-02-14T23:59:36.492Z,97.07
